Time;durP1;ratioP1;P1;durP2;ratioP2;P2;SDS_P1;SDS_P2;PMS_P1;PMS_P2;Temp;Humidity;BMP_temperature;BMP_pressure;BME280_temperature;BME280_humidity;BME280_pressure;Samples;Min_cycle;Max_cycle;Signal;HPM_P1;HPM_P2
2023/03/15 00:01:13;;;;;;;14.07;7.30;;;;;;;5.31;56.73;96181.69;4913558;29;20199;-73
2023/03/15 00:03:42;;;;;;;8.57;6.43;;;;;;;5.44;57.01;96190.53;4913121;29;20197;-79
2023/03/15 00:06:09;;;;;;;11.07;6.60;;;;;;;5.46;57.35;96170.78;4913215;29;20195;-77
2023/03/15 00:08:36;;;;;;;10.00;6.70;;;;;;;5.48;57.93;96181.81;4913681;29;20204;-77
2023/03/15 00:11:03;;;;;;;8.77;6.53;;;;;;;5.24;57.94;96180.22;4911622;29;20233;-80
2023/03/15 00:13:31;;;;;;;9.77;6.97;;;;;;;5.46;57.96;96172.53;4913423;29;20307;-76
2023/03/15 00:15:59;;;;;;;11.30;6.70;;;;;;;5.38;57.39;96164.31;4912896;29;20192;-78
2023/03/15 00:18:28;;;;;;;11.80;6.97;;;;;;;5.47;57.70;96175.03;4913307;29;20208;-79
2023/03/15 00:20:55;;;;;;;12.17;7.43;;;;;;;5.49;57.74;96162.13;4913480;29;20197;-76
2023/03/15 00:23:22;;;;;;;9.80;7.10;;;;;;;5.54;57.50;96155.09;4912898;29;20229;-75
2023/03/15 00:25:50;;;;;;;11.03;7.60;;;;;;;5.50;57.25;96153.53;4895204;29;20220;-78
2023/03/15 00:28:18;;;;;;;12.53;7.10;;;;;;;5.37;57.88;96153.19;4912583;29;20196;-79
2023/03/15 00:30:45;;;;;;;9.83;6.27;;;;;;;5.34;58.40;96144.75;4913468;29;20258;-80
2023/03/15 00:33:14;;;;;;;9.20;6.73;;;;;;;5.37;58.46;96142.09;4912581;29;20220;-82
2023/03/15 00:35:43;;;;;;;11.23;6.80;;;;;;;5.35;57.70;96131.88;4896125;29;20217;-76
2023/03/15 00:38:12;;;;;;;9.27;6.83;;;;;;;5.09;59.45;96095.31;4913135;29;20205;-78
2023/03/15 00:40:41;;;;;;;9.37;6.70;;;;;;;5.16;58.98;96115.53;4912793;29;20192;-74
2023/03/15 00:43:08;;;;;;;10.83;6.73;;;;;;;5.20;59.01;96114.53;4895866;29;20575;-73
2023/03/15 00:45:35;;;;;;;12.17;7.40;;;;;;;5.31;58.73;96117.50;4879913;29;20231;-80
2023/03/15 00:48:03;;;;;;;12.33;6.53;;;;;;;5.32;60.03;96113.19;4895982;29;20220;-80
2023/03/15 00:50:30;;;;;;;10.20;6.93;;;;;;;5.32;59.36;96090.94;4912201;29;20254;-81
2023/03/15 00:52:57;;;;;;;10.40;6.90;;;;;;;5.45;58.76;96098.97;4912536;29;20204;-79
2023/03/15 00:55:24;;;;;;;10.00;6.70;;;;;;;5.47;59.56;96097.16;4895311;29;20228;-79
2023/03/15 00:57:51;;;;;;;8.63;6.53;;;;;;;5.32;59.90;96092.66;4895484;29;20196;-81
2023/03/15 01:00:23;;;;;;;9.23;5.80;;;;;;;5.42;59.47;96091.41;4912775;29;20196;-78
2023/03/15 01:02:52;;;;;;;8.60;6.43;;;;;;;5.39;60.70;96089.78;4911908;29;20199;-78
2023/03/15 01:05:20;;;;;;;9.13;6.03;;;;;;;5.38;60.12;96079.59;4912472;29;20247;-80
2023/03/15 01:07:48;;;;;;;8.50;6.50;;;;;;;5.33;59.49;96077.22;4911862;29;20228;-76
2023/03/15 01:10:16;;;;;;;11.07;7.10;;;;;;;5.39;59.88;96078.69;4895206;29;20188;-81
2023/03/15 01:12:43;;;;;;;8.00;6.07;;;;;;;5.26;59.98;96070.63;4912223;29;20240;-81
2023/03/15 01:15:13;;;;;;;10.37;7.77;;;;;;;5.26;60.37;96064.66;4912159;29;20639;-76
2023/03/15 01:17:41;;;;;;;12.13;8.27;;;;;;;5.18;60.03;96056.44;4895690;29;20203;-79
2023/03/15 01:20:10;;;;;;;10.77;7.73;;;;;;;4.99;59.74;96046.09;4910399;29;20669;-80
2023/03/15 01:22:37;;;;;;;13.60;8.43;;;;;;;5.16;60.55;96051.38;4895479;29;20353;-76
2023/03/15 01:25:08;;;;;;;10.20;7.43;;;;;;;5.11;60.00;96055.84;4894790;29;20231;-82
2023/03/15 01:27:35;;;;;;;8.60;6.57;;;;;;;5.08;60.05;96057.72;4895414;29;20195;-82
2023/03/15 01:30:02;;;;;;;8.57;5.97;;;;;;;4.91;60.17;96050.69;4879265;29;20219;-79
2023/03/15 01:32:29;;;;;;;11.87;6.60;;;;;;;4.73;60.18;96016.34;4894941;29;20231;-81
2023/03/15 01:34:56;;;;;;;10.07;7.53;;;;;;;4.82;60.23;96051.06;4911992;29;20196;-78
2023/03/15 01:37:25;;;;;;;15.07;7.40;;;;;;;4.73;61.07;96052.25;4911079;29;20238;-77
2023/03/15 01:39:52;;;;;;;9.37;6.63;;;;;;;4.54;61.59;96029.94;4912120;29;20286;-78
2023/03/15 01:42:19;;;;;;;10.30;6.83;;;;;;;4.56;61.41;96034.13;4911321;29;20199;-83
2023/03/15 01:45:00;;;;;;;12.43;7.23;;;;;;;4.53;61.67;96029.13;4894700;29;20266;-79
2023/03/15 01:47:31;;;;;;;13.57;10.97;;;;;;;4.30;62.05;96026.59;4894862;29;20245;-78
2023/03/15 01:50:10;;;;;;;16.43;11.50;;;;;;;4.23;62.09;96022.56;4894308;29;20200;-76
2023/03/15 01:52:41;;;;;;;15.03;11.17;;;;;;;4.00;62.50;96002.94;4894908;29;20195;-76
2023/03/15 01:55:19;;;;;;;14.27;11.70;;;;;;;4.13;62.52;96031.50;4895090;29;20281;-84
2023/03/15 01:57:59;;;;;;;14.03;9.67;;;;;;;4.30;61.97;96018.91;4894709;29;20259;-80
2023/03/15 02:00:28;;;;;;;13.30;9.00;;;;;;;4.41;61.54;96033.88;4894106;29;20683;-80
2023/03/15 02:03:02;;;;;;;10.70;7.87;;;;;;;4.43;60.39;96025.22;4894050;29;20191;-77
2023/03/15 02:05:44;;;;;;;11.80;7.43;;;;;;;4.37;60.98;96033.13;4910148;29;20226;-81
2023/03/15 02:08:18;;;;;;;13.23;8.00;;;;;;;4.35;61.54;96037.47;4893686;29;20200;-82
2023/03/15 02:10:50;;;;;;;49.43;30.50;;;;;;;4.38;60.27;96029.69;4894046;29;20237;-76
2023/03/15 02:13:23;;;;;;;13.53;8.37;;;;;;;4.29;60.84;96027.47;4894766;29;20239;-81
2023/03/15 02:15:53;;;;;;;9.47;6.60;;;;;;;4.03;61.07;96032.72;4910749;29;20206;-79
2023/03/15 02:18:26;;;;;;;8.97;6.20;;;;;;;3.77;62.50;96035.41;4894124;29;20582;-81
2023/03/15 02:21:32;;;;;;;10.50;6.40;;;;;;;3.47;62.81;96046.69;4893485;29;20331;-80
2023/03/15 02:24:36;;;;;;;9.70;6.83;;;;;;;3.30;63.07;96035.28;4884088;29;20194;-80
2023/03/15 02:27:02;;;;;;;8.83;6.10;;;;;;;3.28;63.28;96031.94;4894512;29;20223;-83
2023/03/15 02:29:30;;;;;;;14.50;6.37;;;;;;;3.37;63.48;96037.66;4893532;29;20214;-84
2023/03/15 02:31:57;;;;;;;7.53;5.80;;;;;;;3.39;62.14;96048.66;4894952;29;20270;-84
2023/03/15 02:34:24;;;;;;;9.53;6.70;;;;;;;3.24;63.37;96030.38;4910466;29;20201;-83
2023/03/15 02:36:52;;;;;;;10.50;5.87;;;;;;;2.87;64.11;95994.13;4894087;29;20249;-78
2023/03/15 02:39:21;;;;;;;8.67;6.43;;;;;;;3.01;64.12;96037.97;4909544;29;20278;-83
2023/03/15 02:41:54;;;;;;;9.30;6.10;;;;;;;2.96;64.48;96032.19;4910416;29;20206;-82
2023/03/15 02:44:32;;;;;;;10.80;6.60;;;;;;;2.99;63.91;96024.41;4893787;29;20666;-83
2023/03/15 02:47:06;;;;;;;7.50;6.67;;;;;;;3.04;63.47;96022.53;4893261;29;20198;-83
2023/03/15 02:49:45;;;;;;;9.50;6.13;;;;;;;3.10;62.67;96018.94;4910671;29;20202;-81
2023/03/15 02:52:12;;;;;;;6.37;5.27;;;;;;;3.21;62.83;96010.00;4910792;29;20245;-81
2023/03/15 02:54:42;;;;;;;9.73;6.93;;;;;;;3.24;62.11;96014.19;4909147;29;20201;-82
2023/03/15 02:57:11;;;;;;;10.00;6.93;;;;;;;3.30;61.96;96009.72;4910971;29;20198;-84
2023/03/15 02:59:38;;;;;;;9.47;7.67;;;;;;;3.37;62.03;96005.22;4908930;29;20657;-82
2023/03/15 03:02:06;;;;;;;10.50;6.97;;;;;;;3.40;60.92;96009.41;4911288;29;20304;-83
2023/03/15 03:04:33;;;;;;;7.90;6.07;;;;;;;3.36;61.08;95997.63;4911460;29;20198;-84
2023/03/15 03:07:00;;;;;;;8.10;7.27;;;;;;;3.59;60.77;96008.69;4910908;29;20199;-74
2023/03/15 03:09:35;;;;;;;11.57;8.40;;;;;;;3.35;61.91;95986.53;4894558;29;20210;-73
2023/03/15 03:12:02;;;;;;;9.83;8.23;;;;;;;3.29;61.34;95989.31;4910514;29;20199;-78
2023/03/15 03:14:31;;;;;;;13.03;10.00;;;;;;;3.37;62.20;95999.28;4893830;29;20231;-81
2023/03/15 03:16:58;;;;;;;13.37;9.40;;;;;;;3.49;61.10;95991.16;4893163;29;20229;-82
2023/03/15 03:19:26;;;;;;;73.10;30.20;;;;;;;3.50;61.93;95990.28;4893925;29;20199;-80
2023/03/15 03:21:55;;;;;;;25.53;13.50;;;;;;;3.62;61.29;95995.81;4893086;29;20207;-77
2023/03/15 03:24:24;;;;;;;15.00;9.93;;;;;;;3.83;61.35;95999.34;4893807;29;20187;-79
2023/03/15 03:26:56;;;;;;;13.17;9.90;;;;;;;4.12;60.22;95996.53;4895060;29;20298;-84
2023/03/15 03:29:26;;;;;;;13.80;10.10;;;;;;;4.33;59.61;95994.91;4925776;29;20218;-83
2023/03/15 03:31:56;;;;;;;13.17;10.83;;;;;;;4.12;60.30;95986.28;4893950;29;20191;-82
2023/03/15 03:34:23;;;;;;;14.17;10.57;;;;;;;4.23;60.40;95985.88;4910084;29;20607;-80
2023/03/15 03:36:50;;;;;;;12.13;9.00;;;;;;;4.24;60.45;95970.44;4900545;29;20238;-80
2023/03/15 03:39:26;;;;;;;12.77;9.67;;;;;;;4.20;60.98;95979.16;4903047;29;20286;-80
2023/03/15 03:41:53;;;;;;;13.77;10.17;;;;;;;4.03;62.51;95973.81;4910595;29;20188;-82
2023/03/15 03:44:20;;;;;;;15.30;10.93;;;;;;;3.86;63.87;95984.69;4908860;29;20200;-83
2023/03/15 03:46:48;;;;;;;14.20;11.63;;;;;;;3.88;64.36;95984.63;4893026;29;20314;-81
2023/03/15 03:49:16;;;;;;;20.37;12.83;;;;;;;4.08;64.59;95979.63;4910565;29;20230;-82
2023/03/15 03:51:43;;;;;;;22.23;14.57;;;;;;;4.03;63.78;95984.91;4894123;29;20264;-78
2023/03/15 03:54:10;;;;;;;23.53;14.13;;;;;;;4.28;64.12;95996.78;4898703;29;20203;-80
2023/03/15 03:56:38;;;;;;;17.33;12.40;;;;;;;4.33;63.27;95988.03;4900592;29;20199;-84
2023/03/15 03:59:05;;;;;;;17.43;11.93;;;;;;;4.24;63.03;95978.13;4898522;29;20339;-76
2023/03/15 04:01:45;;;;;;;17.40;10.43;;;;;;;4.33;63.13;95977.78;4897884;29;20202;-74
2023/03/15 04:04:12;;;;;;;15.13;9.13;;;;;;;4.01;64.80;95996.94;4917224;29;20615;-74
2023/03/15 04:06:44;;;;;;;15.90;7.67;;;;;;;3.98;63.91;95993.63;4899357;29;20531;-77
2023/03/15 04:09:15;;;;;;;13.23;7.27;;;;;;;3.97;63.67;95984.28;4881759;29;20276;-73
2023/03/15 04:11:44;;;;;;;10.03;7.33;;;;;;;4.19;64.28;95989.44;4889419;29;20217;-75
2023/03/15 04:14:13;;;;;;;12.67;6.43;;;;;;;4.30;63.40;95983.03;4874376;29;20232;-75
2023/03/15 04:16:42;;;;;;;10.37;6.10;;;;;;;4.31;63.52;95981.31;4888754;29;20209;-73
2023/03/15 04:19:11;;;;;;;7.73;6.00;;;;;;;4.19;63.56;95994.56;4857325;29;20298;-73
2023/03/15 04:21:46;;;;;;;13.17;7.90;;;;;;;4.16;64.05;95972.47;4871217;29;20204;-75
2023/03/15 04:24:49;;;;;;;9.17;6.33;;;;;;;4.24;63.60;95992.66;4862620;29;20216;-73
2023/03/15 04:27:34;;;;;;;11.90;7.30;;;;;;;4.19;64.33;95982.59;4892601;29;20200;-77
2023/03/15 04:30:13;;;;;;;15.53;7.83;;;;;;;3.63;66.16;95986.38;4893131;29;20183;-75
2023/03/15 04:33:18;;;;;;;15.27;8.77;;;;;;;3.17;68.26;95998.22;4846482;29;20362;-73
2023/03/15 04:36:04;;;;;;;13.53;9.17;;;;;;;3.42;67.88;95998.22;4854355;29;20204;-75
2023/03/15 04:38:34;;;;;;;21.33;9.50;;;;;;;3.72;67.43;96009.09;4867247;29;20203;-81
2023/03/15 04:41:33;;;;;;;13.40;9.63;;;;;;;3.37;68.49;96001.81;4862752;29;20221;-82
2023/03/15 04:44:09;;;;;;;14.77;9.50;;;;;;;3.46;67.66;95996.41;4870051;29;20693;-76
2023/03/15 04:46:50;;;;;;;15.67;9.47;;;;;;;3.67;67.72;95998.22;4879889;29;20330;-73
2023/03/15 04:49:26;;;;;;;20.57;10.07;;;;;;;3.61;67.98;96003.53;4878323;29;20195;-74
2023/03/15 04:51:59;;;;;;;19.10;9.57;;;;;;;3.64;68.54;95982.94;4878958;29;20202;-76
2023/03/15 04:54:46;;;;;;;26.47;11.13;;;;;;;3.99;67.55;95987.63;4880815;29;20217;-80
2023/03/15 04:57:39;;;;;;;20.20;10.40;;;;;;;4.14;67.24;95989.63;4868969;29;20204;-79
2023/03/15 05:00:26;;;;;;;15.07;10.77;;;;;;;4.08;67.07;95984.75;4866231;29;20202;-76
2023/03/15 05:03:12;;;;;;;12.83;8.67;;;;;;;3.66;68.54;95984.56;4877957;29;20668;-80
2023/03/15 05:05:57;;;;;;;14.13;8.87;;;;;;;3.68;68.64;95946.97;4875244;29;20731;-78
2023/03/15 05:08:47;;;;;;;16.10;8.47;;;;;;;3.64;69.51;95982.94;4868453;29;20224;-74
2023/03/15 05:11:24;;;;;;;12.70;8.57;;;;;;;3.74;69.70;95974.06;4855600;29;20229;-74
2023/03/15 05:14:18;;;;;;;16.97;9.10;;;;;;;3.84;69.03;95960.84;4869718;29;20596;-76
2023/03/15 05:17:14;;;;;;;15.23;9.53;;;;;;;3.90;68.39;95963.19;4853149;29;20603;-73
2023/03/15 05:19:44;;;;;;;15.73;10.83;;;;;;;4.13;67.85;95975.13;4888928;29;20577;-81
2023/03/15 05:22:30;;;;;;;17.43;9.93;;;;;;;4.25;67.38;95978.94;4892703;29;20343;-79
2023/03/15 05:25:16;;;;;;;16.83;10.40;;;;;;;4.25;67.44;95973.81;4907842;29;20671;-76
2023/03/15 05:28:17;;;;;;;22.07;12.30;;;;;;;4.44;66.87;95973.06;4884030;29;20208;-79
2023/03/15 05:31:13;;;;;;;19.63;10.83;;;;;;;4.47;67.05;95970.38;4857195;29;20638;-83
2023/03/15 05:34:15;;;;;;;19.93;10.70;;;;;;;4.60;66.50;95974.13;4876958;29;20601;-83
2023/03/15 05:36:58;;;;;;;12.93;8.67;;;;;;;4.22;66.32;95944.06;4891457;29;20224;-80
2023/03/15 05:39:33;;;;;;;16.03;9.77;;;;;;;4.12;67.08;95953.00;4893779;29;20190;-81
2023/03/15 05:42:10;;;;;;;15.37;10.23;;;;;;;4.46;66.27;95950.78;4913278;29;20199;-82
2023/03/15 05:45:09;;;;;;;21.23;11.30;;;;;;;4.32;67.04;95953.06;4882345;29;20633;-84
2023/03/15 05:47:59;;;;;;;26.37;11.97;;;;;;;4.69;65.55;95937.88;4892621;29;20208;-80
2023/03/15 05:50:30;;;;;;;21.97;11.47;;;;;;;4.76;64.90;95931.59;4892812;29;20202;-84
2023/03/15 05:53:13;;;;;;;29.37;11.60;;;;;;;4.90;63.87;95926.72;4891281;29;20208;-83
2023/03/15 05:55:59;;;;;;;18.90;12.10;;;;;;;5.01;63.10;95956.25;4893184;29;20188;-74
2023/03/15 05:58:29;;;;;;;15.17;10.13;;;;;;;5.24;63.13;95950.97;4881696;29;20207;-81
2023/03/15 06:01:22;;;;;;;18.83;9.77;;;;;;;5.33;62.44;95955.72;4872304;29;20198;-78
2023/03/15 06:04:15;;;;;;;13.93;9.87;;;;;;;5.20;62.25;95949.44;4872936;29;20205;-77
2023/03/15 06:06:43;;;;;;;17.10;9.40;;;;;;;5.42;62.37;95971.56;4871944;29;20252;-78
2023/03/15 06:09:11;;;;;;;18.37;11.17;;;;;;;5.55;61.32;95971.88;4872500;29;20716;-77
2023/03/15 06:11:38;;;;;;;29.27;11.33;;;;;;;5.57;61.03;95964.94;4871887;29;20776;-74
2023/03/15 06:14:09;;;;;;;24.00;12.33;;;;;;;5.53;61.94;95955.69;4856909;29;20296;-77
2023/03/15 06:16:43;;;;;;;26.70;10.60;;;;;;;5.66;60.24;95967.13;4872781;29;20314;-75
2023/03/15 06:19:10;;;;;;;27.27;12.13;;;;;;;5.79;61.28;95986.19;4856427;29;20201;-75
2023/03/15 06:21:37;;;;;;;15.23;10.33;;;;;;;5.77;60.80;95983.72;4873892;29;20220;-78
2023/03/15 06:24:10;;;;;;;20.30;10.97;;;;;;;5.90;60.82;95983.19;4871837;29;20580;-80
2023/03/15 06:26:38;;;;;;;15.13;10.47;;;;;;;6.12;60.14;95989.06;4873148;29;20227;-78
2023/03/15 06:29:08;;;;;;;13.70;8.63;;;;;;;6.14;60.51;95982.13;4872139;29;20191;-78
2023/03/15 06:31:35;;;;;;;18.80;9.83;;;;;;;6.15;60.12;95964.06;4872076;29;20739;-77
2023/03/15 06:34:06;;;;;;;13.83;9.60;;;;;;;6.18;59.63;95973.38;4872128;29;20204;-75
2023/03/15 06:36:33;;;;;;;15.67;8.73;;;;;;;6.19;61.31;95975.84;4871685;29;20191;-79
2023/03/15 06:39:01;;;;;;;17.17;10.33;;;;;;;5.89;62.18;95968.69;4872340;29;20315;-77
2023/03/15 06:41:28;;;;;;;16.83;9.23;;;;;;;5.89;62.56;95977.25;4872856;29;20206;-78
2023/03/15 06:44:03;;;;;;;19.87;9.80;;;;;;;5.91;62.37;95972.88;4871925;29;20220;-73
2023/03/15 06:46:30;;;;;;;12.17;8.77;;;;;;;6.30;62.10;95975.38;4872739;29;20247;-76
2023/03/15 06:48:57;;;;;;;15.67;9.40;;;;;;;6.45;62.20;95970.34;4887270;29;20190;-80
2023/03/15 06:51:25;;;;;;;15.03;8.80;;;;;;;6.55;61.06;95979.28;4872029;29;20680;-85
2023/03/15 06:53:52;;;;;;;22.07;10.30;;;;;;;6.75;61.49;95960.34;4889267;29;20266;-82
2023/03/15 06:56:21;;;;;;;16.43;9.73;;;;;;;6.98;60.05;95957.50;4888200;29;20278;-83
2023/03/15 06:58:48;;;;;;;15.43;9.57;;;;;;;6.94;60.45;95961.13;4871537;29;20679;-77
2023/03/15 07:01:15;;;;;;;15.37;8.83;;;;;;;6.94;60.26;95962.88;4873107;29;20199;-84
2023/03/15 07:03:42;;;;;;;13.40;8.90;;;;;;;6.82;60.99;95966.03;4872522;29;20232;-84
2023/03/15 07:06:09;;;;;;;15.60;9.10;;;;;;;6.92;60.89;95962.94;4872488;29;20758;-83
2023/03/15 07:08:37;;;;;;;18.63;9.47;;;;;;;7.09;60.91;95969.84;4872881;29;20230;-78
2023/03/15 07:11:05;;;;;;;17.97;10.60;;;;;;;7.17;60.39;95960.00;4872518;29;20202;-76
2023/03/15 07:13:32;;;;;;;22.20;10.57;;;;;;;7.11;61.50;95947.44;4883817;29;20223;-75
2023/03/15 07:15:59;;;;;;;19.40;10.73;;;;;;;7.31;60.84;95966.13;4890793;29;20196;-80
2023/03/15 07:18:26;;;;;;;20.60;10.73;;;;;;;7.14;60.69;95965.28;4891293;29;20565;-77
2023/03/15 07:20:58;;;;;;;19.90;11.43;;;;;;;7.28;60.44;95945.66;4890985;29;20198;-77
2023/03/15 07:23:25;;;;;;;22.23;10.43;;;;;;;7.47;60.72;95950.72;4891028;29;20214;-75
2023/03/15 07:25:53;;;;;;;24.50;11.60;;;;;;;7.65;59.68;95954.09;4891484;29;20279;-80
2023/03/15 07:28:22;;;;;;;20.67;11.20;;;;;;;7.61;59.85;95957.72;4890832;29;20683;-77
2023/03/15 07:30:54;;;;;;;22.93;13.20;;;;;;;7.78;60.54;95948.22;4891539;29;20300;-78
2023/03/15 07:33:21;;;;;;;24.40;12.90;;;;;;;7.66;59.94;95941.16;4890392;29;20195;-79
2023/03/15 07:35:50;;;;;;;21.43;13.60;;;;;;;7.85;60.49;95941.03;4894184;29;20195;-80
2023/03/15 07:38:18;;;;;;;29.07;12.90;;;;;;;7.72;59.70;95927.94;4894638;29;20276;-76
2023/03/15 07:40:47;;;;;;;20.23;13.63;;;;;;;8.04;59.65;95932.22;4894681;29;20783;-82
2023/03/15 07:43:14;;;;;;;21.13;12.13;;;;;;;8.14;58.91;95911.91;4893755;29;20286;-77
2023/03/15 07:45:42;;;;;;;18.70;13.10;;;;;;;8.38;58.89;95930.44;4916049;29;20213;-75
2023/03/15 07:48:09;;;;;;;22.53;12.40;;;;;;;8.47;58.24;95929.94;4916299;29;20200;-77
2023/03/15 07:50:36;;;;;;;19.80;12.67;;;;;;;8.61;58.88;95922.25;4913904;29;20199;-78
2023/03/15 07:53:04;;;;;;;14.00;9.77;;;;;;;8.52;58.00;95923.59;4892539;29;20563;-78
2023/03/15 07:55:32;;;;;;;13.37;9.13;;;;;;;8.40;59.13;95926.84;4894261;29;20231;-77
2023/03/15 07:57:59;;;;;;;16.33;9.50;;;;;;;8.50;59.20;95919.44;4880004;29;20206;-77
2023/03/15 08:00:27;;;;;;;17.10;9.33;;;;;;;8.70;58.78;95924.31;4894638;29;20663;-75
2023/03/15 08:02:54;;;;;;;16.70;8.67;;;;;;;8.70;58.97;95909.66;4861220;29;20234;-79
2023/03/15 08:05:21;;;;;;;12.73;8.40;;;;;;;8.74;59.42;95920.63;4894812;29;20562;-74
2023/03/15 08:07:48;;;;;;;14.00;7.80;;;;;;;8.85;59.17;95931.19;4893656;29;20689;-77
2023/03/15 08:10:16;;;;;;;14.37;9.10;;;;;;;9.12;58.27;95932.19;4894348;29;20192;-74
2023/03/15 08:12:43;;;;;;;12.90;7.70;;;;;;;9.30;58.01;95928.53;4892521;29;20320;-80
2023/03/15 08:15:12;;;;;;;13.13;7.70;;;;;;;9.49;57.34;95928.28;4893673;29;20238;-76
2023/03/15 08:17:40;;;;;;;17.63;8.50;;;;;;;9.48;56.91;95904.19;4876902;29;20195;-78
2023/03/15 08:20:10;;;;;;;13.43;6.60;;;;;;;9.42;57.44;95914.91;4893501;29;20271;-76
2023/03/15 08:22:37;;;;;;;19.03;7.53;;;;;;;9.35;57.15;95911.03;4894176;29;20199;-74
2023/03/15 08:25:05;;;;;;;14.33;6.17;;;;;;;9.38;57.19;95897.91;4876105;29;20235;-74
2023/03/15 08:27:32;;;;;;;10.80;6.07;;;;;;;9.07;58.08;95905.78;4892937;29;20230;-80
2023/03/15 08:30:00;;;;;;;9.87;6.83;;;;;;;8.52;60.59;95902.94;4892389;29;20199;-78
2023/03/15 08:32:28;;;;;;;12.47;6.57;;;;;;;9.11;58.72;95891.78;4876116;29;20210;-77
2023/03/15 08:34:55;;;;;;;10.47;6.70;;;;;;;9.01;58.62;95885.50;4893717;29;20296;-81
2023/03/15 08:37:22;;;;;;;9.17;6.97;;;;;;;9.26;57.72;95897.81;4893032;29;20196;-78
2023/03/15 08:39:56;;;;;;;11.67;7.00;;;;;;;8.76;59.56;95882.66;4894407;29;20253;-77
2023/03/15 08:42:23;;;;;;;11.10;6.63;;;;;;;9.21;58.15;95879.19;4876747;29;20679;-80
2023/03/15 08:44:50;;;;;;;11.70;6.20;;;;;;;9.42;57.57;95878.72;4877355;29;20271;-84
2023/03/15 08:47:17;;;;;;;8.93;6.87;;;;;;;9.44;57.72;95869.13;4875976;29;20714;-82
2023/03/15 08:49:44;;;;;;;16.27;7.60;;;;;;;9.66;56.93;95848.84;4893505;29;20229;-76
2023/03/15 08:52:11;;;;;;;13.00;7.70;;;;;;;9.72;56.71;95866.56;4893590;29;20302;-78
2023/03/15 08:54:39;;;;;;;11.43;6.97;;;;;;;9.75;56.80;95857.75;4876310;29;20198;-81
2023/03/15 08:57:06;;;;;;;17.43;7.77;;;;;;;9.93;56.69;95871.31;4876850;29;20279;-80
2023/03/15 08:59:33;;;;;;;12.63;6.53;;;;;;;9.86;56.19;95857.94;4892641;29;20207;-77
2023/03/15 09:02:00;;;;;;;9.03;5.80;;;;;;;9.87;56.14;95862.16;4893665;29;20287;-81
2023/03/15 09:04:27;;;;;;;13.07;6.27;;;;;;;9.79;55.62;95852.31;4892801;29;20283;-84
2023/03/15 09:06:54;;;;;;;10.50;6.33;;;;;;;9.76;56.02;95834.41;4893251;29;20231;-74
2023/03/15 09:09:22;;;;;;;7.60;5.80;;;;;;;9.81;55.82;95837.53;4894158;29;20215;-81
2023/03/15 09:11:49;;;;;;;12.47;6.20;;;;;;;9.95;55.49;95831.53;4893470;29;20201;-79
2023/03/15 09:14:16;;;;;;;9.43;6.60;;;;;;;10.42;54.02;95825.94;4873232;29;20240;-77
2023/03/15 09:16:43;;;;;;;10.53;6.53;;;;;;;10.36;52.67;95813.41;4874760;29;20276;-75
2023/03/15 09:19:10;;;;;;;9.10;6.23;;;;;;;10.71;52.62;95827.47;4875450;29;20188;-76
2023/03/15 09:21:36;;;;;;;25.73;5.87;;;;;;;10.08;52.00;95816.03;4874612;29;20204;-77
2023/03/15 09:24:04;;;;;;;7.13;5.20;;;;;;;10.17;52.50;95820.66;4876371;29;20316;-79
2023/03/15 09:26:31;;;;;;;10.67;5.37;;;;;;;10.63;51.74;95811.63;4877297;29;20222;-80
2023/03/15 09:28:58;;;;;;;7.73;4.50;;;;;;;11.19;51.35;95824.19;4877307;29;20200;-74
2023/03/15 09:31:25;;;;;;;7.17;5.07;;;;;;;11.74;50.36;95812.69;4875855;29;20655;-81
2023/03/15 09:33:52;;;;;;;11.00;6.13;;;;;;;11.99;49.66;95817.81;4873726;29;20193;-80
2023/03/15 09:36:19;;;;;;;8.63;4.63;;;;;;;11.85;49.15;95795.41;4874359;29;20200;-82
2023/03/15 09:38:46;;;;;;;7.87;3.80;;;;;;;11.75;48.89;95793.56;4856746;29;20245;-81
2023/03/15 09:41:41;;;;;;;7.67;4.23;;;;;;;12.08;48.75;95814.53;4874156;29;20191;-77
2023/03/15 09:44:21;;;;;;;8.70;4.73;;;;;;;12.24;47.76;95809.94;4855514;29;20624;-81
2023/03/15 09:47:03;;;;;;;4.90;4.13;;;;;;;12.07;47.88;95785.19;4877859;29;20233;-77
2023/03/15 09:49:40;;;;;;;8.17;4.50;;;;;;;12.36;48.26;95793.47;4873440;29;20223;-81
2023/03/15 09:52:44;;;;;;;5.40;3.90;;;;;;;11.35;49.40;95806.66;4873557;29;20309;-83
2023/03/15 09:55:19;;;;;;;8.00;5.10;;;;;;;11.11;51.12;95808.34;4821486;29;20244;-78
2023/03/15 09:57:51;;;;;;;4.97;4.27;;;;;;;11.33;50.77;95790.38;4874392;29;20217;-79
2023/03/15 10:00:42;;;;;;;9.40;4.03;;;;;;;11.65;49.67;95792.53;4874040;29;20596;-81
2023/03/15 10:03:23;;;;;;;9.97;4.40;;;;;;;11.84;49.18;95806.75;4878242;29;20773;-82
2023/03/15 10:06:11;;;;;;;6.50;3.07;;;;;;;12.11;48.28;95791.81;4903287;29;20223;-76
2023/03/15 10:08:38;;;;;;;8.30;3.80;;;;;;;12.17;47.43;95793.13;4872218;29;20286;-82
2023/03/15 10:11:10;;;;;;;6.00;3.80;;;;;;;12.35;47.59;95801.34;4874094;29;20230;-78
2023/03/15 10:13:50;;;;;;;8.43;3.60;;;;;;;12.24;47.19;95789.16;4866124;29;20238;-84
2023/03/15 10:16:31;;;;;;;8.50;3.60;;;;;;;12.33;46.93;95790.25;4893463;29;20201;-83
2023/03/15 10:19:26;;;;;;;7.70;3.97;;;;;;;12.38;46.76;95778.59;4899701;29;20232;-82
2023/03/15 10:21:59;;;;;;;4.93;3.33;;;;;;;12.39;46.38;95790.63;4888777;29;20200;-84
2023/03/15 10:24:34;;;;;;;7.13;3.70;;;;;;;11.70;48.46;95785.28;4892851;29;20229;-77
2023/03/15 10:27:14;;;;;;;8.57;4.57;;;;;;;11.93;48.32;95787.09;4893087;29;20342;-75
2023/03/15 10:29:42;;;;;;;6.27;4.87;;;;;;;12.16;47.76;95781.91;4892786;29;20627;-74
2023/03/15 10:32:19;;;;;;;8.33;5.47;;;;;;;12.14;47.79;95749.22;4892425;29;20191;-75
2023/03/15 10:34:50;;;;;;;8.23;4.00;;;;;;;11.91;48.88;95773.41;4891373;29;20287;-73
2023/03/15 10:37:18;;;;;;;8.23;3.73;;;;;;;12.25;48.04;95763.09;4891895;29;20720;-74
2023/03/15 10:39:48;;;;;;;6.97;3.63;;;;;;;12.60;47.24;95762.25;4891460;29;20192;-75
2023/03/15 10:42:30;;;;;;;6.10;3.77;;;;;;;12.77;46.64;95748.84;4891537;29;20193;-74
2023/03/15 10:45:10;;;;;;;6.03;3.53;;;;;;;12.85;45.93;95749.94;4895012;29;20304;-75
2023/03/15 10:47:42;;;;;;;6.83;3.97;;;;;;;12.43;46.60;95734.09;4909176;29;20287;-78
2023/03/15 10:50:31;;;;;;;8.67;3.90;;;;;;;12.66;47.00;95751.41;4909437;29;20312;-75
2023/03/15 10:53:07;;;;;;;5.47;3.97;;;;;;;12.53;47.16;95738.50;4910343;29;20247;-78
2023/03/15 10:55:44;;;;;;;6.30;3.53;;;;;;;12.71;46.15;95755.34;4908506;29;20200;-76
2023/03/15 10:58:26;;;;;;;7.03;3.60;;;;;;;11.87;48.46;95743.44;4910802;29;20296;-76
2023/03/15 11:01:02;;;;;;;6.23;3.33;;;;;;;12.12;48.22;95735.53;4910001;29;20192;-75
2023/03/15 11:03:30;;;;;;;4.63;3.50;;;;;;;12.36;48.03;95723.38;4910215;29;20190;-80
2023/03/15 11:05:58;;;;;;;6.37;3.20;;;;;;;12.03;47.57;95724.06;4907902;29;20190;-78
2023/03/15 11:08:36;;;;;;;6.83;3.83;;;;;;;12.30;47.78;95729.03;4884628;29;20706;-77
2023/03/15 11:11:03;;;;;;;4.80;3.50;;;;;;;12.41;47.35;95726.44;4878607;29;20199;-81
2023/03/15 11:13:33;;;;;;;7.47;3.57;;;;;;;12.12;48.17;95714.75;4895061;29;20239;-79
2023/03/15 11:16:03;;;;;;;7.03;4.00;;;;;;;12.31;47.45;95725.47;4896827;29;20205;-78
2023/03/15 11:18:36;;;;;;;7.73;3.87;;;;;;;12.16;48.04;95713.59;4896076;29;20255;-78
2023/03/15 11:21:13;;;;;;;5.40;3.30;;;;;;;12.29;48.37;95716.97;4897345;29;20210;-84
2023/03/15 11:23:46;;;;;;;5.60;4.00;;;;;;;12.52;47.67;95720.47;4898278;29;20198;-79
2023/03/15 11:26:18;;;;;;;7.77;3.80;;;;;;;12.70;47.98;95713.88;4878710;29;21079;-81
2023/03/15 11:29:02;;;;;;;8.33;3.80;;;;;;;12.55;47.26;95695.06;4895482;29;20233;-73
2023/03/15 11:31:30;;;;;;;5.77;3.93;;;;;;;12.00;48.59;95710.47;4894947;29;20288;-77
2023/03/15 11:34:35;;;;;;;5.43;3.57;;;;;;;11.98;48.46;95696.78;4878312;29;20206;-79
2023/03/15 11:37:31;;;;;;;9.47;4.00;;;;;;;12.19;48.69;95695.22;4896475;29;20602;-79
2023/03/15 11:40:17;;;;;;;8.37;3.93;;;;;;;11.93;49.03;95672.97;4890625;29;20588;-77
2023/03/15 11:42:59;;;;;;;9.13;4.07;;;;;;;12.13;48.47;95698.28;4895322;29;20196;-82
2023/03/15 11:45:49;;;;;;;7.37;4.03;;;;;;;12.25;48.99;95706.00;4896661;29;20701;-76
2023/03/15 11:48:41;;;;;;;10.13;4.07;;;;;;;12.48;48.63;95698.25;4878405;29;20312;-76
2023/03/15 11:51:11;;;;;;;8.30;3.93;;;;;;;12.35;47.50;95669.78;4877952;29;20203;-80
2023/03/15 11:53:48;;;;;;;7.37;3.73;;;;;;;12.54;47.17;95696.03;4894690;29;20200;-74
2023/03/15 11:56:25;;;;;;;5.47;3.60;;;;;;;12.59;46.87;95691.31;4894011;29;20227;-79
2023/03/15 11:59:10;;;;;;;8.57;3.60;;;;;;;12.62;46.41;95664.28;4894669;29;20199;-76